createdAt,value
2022-09-16T00:02:09.806Z,14.80
2022-09-16T00:04:36.486Z,14.80
2022-09-16T00:07:04.262Z,14.80
2022-09-16T00:09:30.924Z,14.80
2022-09-16T00:11:57.613Z,14.80
2022-09-16T00:14:24.373Z,14.80
2022-09-16T00:16:51.119Z,14.80
2022-09-16T00:19:17.781Z,14.80
2022-09-16T00:21:44.479Z,14.80
2022-09-16T00:24:13.969Z,14.80
2022-09-16T00:26:40.707Z,14.80
2022-09-16T00:29:07.367Z,14.80
2022-09-16T00:31:34.099Z,14.80
2022-09-16T00:34:00.760Z,14.80
2022-09-16T00:36:27.494Z,14.80
2022-09-16T00:38:55.084Z,14.80
2022-09-16T00:41:21.931Z,14.80
2022-09-16T00:43:48.759Z,14.80
2022-09-16T00:46:15.484Z,14.80
2022-09-16T00:48:42.153Z,14.80
2022-09-16T00:51:09.329Z,14.80
2022-09-16T00:53:40.782Z,14.70
2022-09-16T00:56:09.605Z,14.60
2022-09-16T00:58:36.232Z,14.60
2022-09-16T01:01:02.990Z,14.70
2022-09-16T01:03:29.726Z,14.60
2022-09-16T01:05:56.436Z,14.60
2022-09-16T01:08:23.142Z,14.60
2022-09-16T01:10:49.853Z,14.50
2022-09-16T01:13:16.497Z,14.50
2022-09-16T01:15:43.188Z,14.40
2022-09-16T01:18:09.815Z,14.40
2022-09-16T01:20:36.601Z,14.40
2022-09-16T01:23:03.261Z,14.30
2022-09-16T01:25:29.923Z,14.40
2022-09-16T01:27:56.578Z,14.40
2022-09-16T01:30:23.400Z,14.30
2022-09-16T01:32:50.037Z,14.30
2022-09-16T01:35:16.738Z,14.30
2022-09-16T01:37:43.459Z,14.30
2022-09-16T01:40:10.231Z,14.30
2022-09-16T01:42:36.919Z,14.30
2022-09-16T01:45:03.677Z,14.30
2022-09-16T01:47:30.339Z,14.30
2022-09-16T01:49:57.108Z,14.20
2022-09-16T01:52:23.740Z,14.20
2022-09-16T01:54:50.447Z,14.10
2022-09-16T01:57:17.069Z,14.10
2022-09-16T01:59:43.787Z,14.00
2022-09-16T02:02:10.530Z,14.00
2022-09-16T02:04:37.311Z,14.00
2022-09-16T02:07:03.954Z,14.00
2022-09-16T02:09:30.717Z,14.00
2022-09-16T02:11:57.410Z,13.90
2022-09-16T02:14:24.094Z,13.90
2022-09-16T02:16:50.754Z,13.80
2022-09-16T02:19:17.471Z,13.80
2022-09-16T02:21:45.996Z,13.80
2022-09-16T02:24:13.061Z,13.70
2022-09-16T02:26:39.782Z,13.60
2022-09-16T02:29:06.499Z,13.60
2022-09-16T02:31:33.152Z,13.60
2022-09-16T02:33:59.962Z,13.60
2022-09-16T02:36:26.979Z,13.60
2022-09-16T02:38:53.684Z,13.60
2022-09-16T02:41:20.338Z,13.60
2022-09-16T02:43:47.106Z,13.50
2022-09-16T02:46:13.878Z,13.50
2022-09-16T02:48:40.773Z,13.50
2022-09-16T02:51:07.387Z,13.50
2022-09-16T02:53:35.435Z,13.40
2022-09-16T02:56:02.150Z,13.40
2022-09-16T02:58:29.288Z,13.40
2022-09-16T03:00:55.917Z,13.40
2022-09-16T03:03:22.634Z,13.30
2022-09-16T03:05:49.284Z,13.40
2022-09-16T03:08:16.083Z,13.40
2022-09-16T03:10:42.770Z,13.40
2022-09-16T03:13:09.489Z,13.40
2022-09-16T03:15:36.264Z,13.40
2022-09-16T03:18:03.016Z,13.40
2022-09-16T03:20:29.835Z,13.40
2022-09-16T03:22:56.491Z,13.40
2022-09-16T03:25:23.137Z,13.40
2022-09-16T03:27:50.580Z,13.40
2022-09-16T03:30:17.257Z,13.40
2022-09-16T03:32:43.948Z,13.40
2022-09-16T03:35:10.570Z,13.40
2022-09-16T03:37:37.559Z,13.40
2022-09-16T03:40:04.247Z,13.40
2022-09-16T03:42:30.926Z,13.40
2022-09-16T03:44:57.568Z,13.40
2022-09-16T03:47:24.420Z,13.40
2022-09-16T03:49:51.570Z,13.40
2022-09-16T03:52:19.884Z,13.40
2022-09-16T03:54:46.568Z,13.40
2022-09-16T03:57:13.286Z,13.40
2022-09-16T03:59:39.908Z,13.40
2022-09-16T04:02:06.596Z,13.40
2022-09-16T04:04:33.331Z,13.30
2022-09-16T04:07:00.050Z,13.30
2022-09-16T04:09:26.710Z,13.30
2022-09-16T04:11:53.377Z,13.30
2022-09-16T04:14:20.342Z,13.30
2022-09-16T04:16:47.080Z,13.20
2022-09-16T04:19:13.712Z,13.20
2022-09-16T04:21:40.501Z,13.20
2022-09-16T04:24:10.746Z,13.20
2022-09-16T04:26:39.775Z,13.10
2022-09-16T04:29:06.440Z,13.10
2022-09-16T04:31:33.177Z,13.10
2022-09-16T04:33:59.842Z,13.00
2022-09-16T04:36:26.533Z,13.00
2022-09-16T04:38:53.176Z,13.00
2022-09-16T04:41:19.916Z,13.00
2022-09-16T04:43:46.570Z,12.90
2022-09-16T04:46:13.518Z,12.90
2022-09-16T04:48:40.228Z,12.90
2022-09-16T04:51:06.998Z,12.90
2022-09-16T04:53:33.663Z,12.80
2022-09-16T04:56:00.356Z,12.80
2022-09-16T04:58:27.063Z,12.80
2022-09-16T05:00:53.928Z,12.80
2022-09-16T05:03:20.597Z,12.70
2022-09-16T05:05:47.343Z,12.80
2022-09-16T05:08:13.994Z,12.70
2022-09-16T05:10:40.947Z,12.70
2022-09-16T05:13:07.560Z,12.80
2022-09-16T05:15:34.311Z,12.80
2022-09-16T05:18:01.011Z,12.70
2022-09-16T05:20:27.653Z,12.70
2022-09-16T05:22:54.944Z,12.70
2022-09-16T05:25:21.727Z,12.70
2022-09-16T05:27:48.424Z,12.60
2022-09-16T05:30:17.368Z,12.60
2022-09-16T05:32:44.072Z,12.60
2022-09-16T05:35:10.730Z,12.50
2022-09-16T05:37:37.416Z,12.50
2022-09-16T05:40:04.149Z,12.50
2022-09-16T05:42:30.819Z,12.40
2022-09-16T05:44:57.589Z,12.40
2022-09-16T05:47:24.232Z,12.40
2022-09-16T05:49:54.807Z,12.40
2022-09-16T05:52:21.799Z,12.40
2022-09-16T05:54:48.533Z,12.40
2022-09-16T05:57:15.275Z,12.40
2022-09-16T05:59:42.008Z,12.40
2022-09-16T06:02:08.739Z,12.30
2022-09-16T06:04:35.714Z,12.40
2022-09-16T06:07:03.658Z,12.40
2022-09-16T06:09:30.372Z,12.40
2022-09-16T06:12:01.879Z,12.40
2022-09-16T06:14:29.139Z,12.40
2022-09-16T06:16:55.802Z,12.50
2022-09-16T06:19:22.696Z,12.60
2022-09-16T06:21:49.388Z,12.50
2022-09-16T06:24:16.080Z,12.50
2022-09-16T06:26:42.732Z,12.50
2022-09-16T06:29:09.452Z,12.50
2022-09-16T06:31:36.274Z,12.50
2022-09-16T06:34:02.992Z,12.50
2022-09-16T06:36:29.637Z,12.50
2022-09-16T06:38:56.424Z,12.50
2022-09-16T06:41:23.137Z,12.50
2022-09-16T06:43:51.283Z,12.50
2022-09-16T06:46:18.201Z,12.50
2022-09-16T06:48:45.309Z,12.50
2022-09-16T06:51:12.626Z,12.50
2022-09-16T06:53:39.464Z,12.50
2022-09-16T06:56:06.285Z,12.50
2022-09-16T06:58:33.054Z,12.60
2022-09-16T07:00:59.947Z,12.60
2022-09-16T07:03:26.771Z,12.60
2022-09-16T07:05:53.413Z,12.60
2022-09-16T07:08:20.130Z,12.60
2022-09-16T07:10:46.807Z,12.60
2022-09-16T07:13:13.488Z,12.60
2022-09-16T07:16:02.283Z,12.70
2022-09-16T07:18:27.603Z,12.80
2022-09-16T07:20:54.229Z,12.90
2022-09-16T07:23:20.948Z,13.00
2022-09-16T07:25:47.621Z,13.10
2022-09-16T07:28:14.365Z,13.10
2022-09-16T07:30:41.286Z,13.20
2022-09-16T07:33:08.103Z,13.30
2022-09-16T07:35:34.722Z,13.40
2022-09-16T07:38:02.090Z,13.40
2022-09-16T07:40:29.879Z,13.50
2022-09-16T07:42:56.655Z,13.60
2022-09-16T07:45:23.306Z,13.70
2022-09-16T07:47:50.366Z,13.70
2022-09-16T07:50:17.092Z,13.80
2022-09-16T07:55:17.509Z,13.90
2022-09-16T07:57:44.201Z,14.00
2022-09-16T08:00:11.449Z,14.00
2022-09-16T08:02:38.128Z,14.10
2022-09-16T08:05:04.952Z,14.20
2022-09-16T08:07:31.615Z,14.30
2022-09-16T08:09:58.573Z,14.30
2022-09-16T08:12:25.534Z,14.40
2022-09-16T08:14:52.259Z,14.40
2022-09-16T08:17:18.970Z,14.30
2022-09-16T08:19:45.692Z,14.20
2022-09-16T08:22:14.963Z,14.10
2022-09-16T08:24:41.710Z,14.10
2022-09-16T08:27:08.350Z,14.00
2022-09-16T08:29:35.096Z,14.00
2022-09-16T08:32:01.844Z,14.00
2022-09-16T08:34:28.568Z,14.00
2022-09-16T08:36:55.256Z,14.20
2022-09-16T08:39:22.030Z,14.30
2022-09-16T08:41:48.691Z,14.20
2022-09-16T08:44:15.387Z,14.20
2022-09-16T08:46:42.010Z,14.20
2022-09-16T08:49:09.412Z,14.20
2022-09-16T08:51:36.098Z,14.10
2022-09-16T08:54:02.875Z,14.10
2022-09-16T08:56:29.599Z,14.10
2022-09-16T08:58:56.362Z,14.10
2022-09-16T09:01:23.144Z,14.00
2022-09-16T09:03:49.983Z,14.00
2022-09-16T09:06:17.028Z,14.10
2022-09-16T09:08:43.850Z,14.10
2022-09-16T09:11:10.610Z,14.10
2022-09-16T09:13:37.986Z,14.10
2022-09-16T09:16:04.754Z,14.10
2022-09-16T09:18:31.558Z,14.00
2022-09-16T09:20:58.317Z,14.10
2022-09-16T09:23:25.117Z,14.10
2022-09-16T09:25:51.972Z,14.10
2022-09-16T09:28:21.366Z,14.30
2022-09-16T09:30:48.066Z,14.40
2022-09-16T09:33:34.530Z,14.50
2022-09-16T09:36:03.018Z,14.50
2022-09-16T09:38:29.764Z,14.50
2022-09-16T09:40:57.454Z,14.50
2022-09-16T09:43:24.156Z,14.60
2022-09-16T09:45:50.953Z,14.60
2022-09-16T09:48:17.705Z,14.60
2022-09-16T09:50:44.432Z,14.70
2022-09-16T09:53:11.159Z,14.70
2022-09-16T09:55:38.016Z,14.70
2022-09-16T09:58:05.448Z,14.80
2022-09-16T10:00:32.200Z,14.80
2022-09-16T10:02:58.859Z,14.80
2022-09-16T10:05:25.584Z,14.80
2022-09-16T10:07:52.324Z,14.80
2022-09-16T10:10:19.105Z,14.90
2022-09-16T10:12:45.857Z,14.80
2022-09-16T10:15:12.640Z,14.70
2022-09-16T10:17:39.308Z,14.70
2022-09-16T10:20:07.506Z,14.60
2022-09-16T10:22:34.210Z,14.60
2022-09-16T10:25:00.957Z,14.80
2022-09-16T10:27:27.834Z,14.80
2022-09-16T10:29:54.554Z,14.70
2022-09-16T10:32:21.295Z,14.60
2022-09-16T10:34:48.523Z,14.60
2022-09-16T10:37:15.214Z,14.50
2022-09-16T10:39:41.956Z,14.60
2022-09-16T10:42:08.681Z,14.70
2022-09-16T10:44:35.381Z,14.90
2022-09-16T10:47:02.056Z,14.90
2022-09-16T10:49:28.785Z,14.90
2022-09-16T10:51:55.511Z,15.10
2022-09-16T10:54:22.243Z,15.20
2022-09-16T10:56:49.037Z,15.20
2022-09-16T10:59:15.770Z,15.30
2022-09-16T11:01:45.266Z,15.30
2022-09-16T11:04:12.805Z,15.50
2022-09-16T11:06:39.779Z,15.60
2022-09-16T11:09:06.551Z,15.80
2022-09-16T11:11:33.288Z,15.80
2022-09-16T11:14:00.088Z,15.60
2022-09-16T11:16:26.830Z,15.60
2022-09-16T11:19:05.170Z,15.50
2022-09-16T11:21:40.645Z,15.40
2022-09-16T11:24:13.333Z,15.40
2022-09-16T11:26:50.867Z,15.30
2022-09-16T11:29:17.706Z,15.40
2022-09-16T11:31:44.499Z,15.60
2022-09-16T11:34:11.783Z,15.70
2022-09-16T11:36:38.704Z,15.70
2022-09-16T11:39:05.607Z,15.60
2022-09-16T11:41:32.384Z,15.50
2022-09-16T11:43:59.210Z,15.60
2022-09-16T11:46:26.089Z,15.70
2022-09-16T11:48:52.914Z,15.80
2022-09-16T11:51:20.197Z,15.80
2022-09-16T11:53:47.173Z,15.70
2022-09-16T11:56:14.319Z,15.70
2022-09-16T11:58:41.089Z,15.70
2022-09-16T12:01:07.914Z,15.80
2022-09-16T12:03:34.678Z,15.80
2022-09-16T12:06:04.732Z,15.90
2022-09-16T12:08:31.477Z,15.90
2022-09-16T12:10:58.407Z,15.90
2022-09-16T12:13:25.337Z,16.00
2022-09-16T12:15:54.754Z,16.10
2022-09-16T12:18:21.532Z,16.20
2022-09-16T12:20:48.338Z,16.20
2022-09-16T12:23:15.055Z,16.20
2022-09-16T12:25:46.007Z,16.30
2022-09-16T12:28:13.149Z,16.30
2022-09-16T12:30:39.846Z,16.30
2022-09-16T12:33:06.623Z,16.10
2022-09-16T12:35:33.328Z,15.90
2022-09-16T12:38:00.130Z,15.80
2022-09-16T12:40:27.033Z,15.70
2022-09-16T12:42:53.881Z,15.70
2022-09-16T12:45:20.578Z,15.80
2022-09-16T12:47:47.348Z,15.90
2022-09-16T12:50:14.112Z,16.20
2022-09-16T12:52:40.883Z,16.20
2022-09-16T12:55:08.844Z,16.30
2022-09-16T12:57:35.989Z,16.30
2022-09-16T13:00:02.916Z,16.30
2022-09-16T13:02:29.816Z,16.40
2022-09-16T13:04:56.721Z,16.50
2022-09-16T13:07:23.629Z,16.60
2022-09-16T13:09:50.348Z,16.80
2022-09-16T13:12:36.869Z,16.80
2022-09-16T13:15:05.043Z,16.80
2022-09-16T13:17:31.855Z,16.80
2022-09-16T13:19:58.583Z,16.60
2022-09-16T13:22:25.314Z,16.60
2022-09-16T13:24:52.145Z,16.50
2022-09-16T13:27:18.852Z,16.70
2022-09-16T13:29:45.667Z,16.70
2022-09-16T13:32:12.339Z,16.60
2022-09-16T13:34:39.419Z,16.50
2022-09-16T13:37:06.104Z,16.50
2022-09-16T13:39:32.963Z,16.60
2022-09-16T13:41:59.939Z,16.60
2022-09-16T13:44:26.805Z,16.60
2022-09-16T13:46:53.506Z,16.50
2022-09-16T13:49:20.224Z,16.50
2022-09-16T13:51:47.437Z,16.40
2022-09-16T13:54:14.176Z,16.40
2022-09-16T13:56:40.810Z,16.20
2022-09-16T13:59:07.535Z,16.10
2022-09-16T14:01:55.484Z,16.00
2022-09-16T14:04:21.288Z,15.90
2022-09-16T14:06:48.029Z,16.00
2022-09-16T14:09:14.765Z,16.00
2022-09-16T14:11:41.431Z,16.10
2022-09-16T14:14:12.552Z,16.20
2022-09-16T14:16:51.273Z,16.30
2022-09-16T14:19:18.015Z,16.40
2022-09-16T14:21:44.738Z,16.50
2022-09-16T14:24:11.572Z,16.60
2022-09-16T14:26:38.334Z,16.70
2022-09-16T14:29:05.366Z,16.60
2022-09-16T14:31:32.202Z,16.50
2022-09-16T14:34:00.730Z,16.30
2022-09-16T14:36:27.479Z,16.30
2022-09-16T14:38:54.684Z,16.30
2022-09-16T14:41:21.421Z,16.30
2022-09-16T14:43:48.077Z,16.20
2022-09-16T14:46:17.099Z,16.20
2022-09-16T14:48:43.795Z,16.20
2022-09-16T14:51:10.778Z,16.20
2022-09-16T14:53:38.587Z,16.20
2022-09-16T14:56:05.472Z,16.20
2022-09-16T14:58:32.129Z,16.20
2022-09-16T15:00:59.099Z,16.30
2022-09-16T15:03:25.861Z,16.30
2022-09-16T15:05:52.563Z,16.30
2022-09-16T15:08:19.315Z,16.30
2022-09-16T15:10:53.698Z,16.20
2022-09-16T15:13:20.436Z,16.20
2022-09-16T15:15:47.201Z,16.20
2022-09-16T15:18:13.922Z,16.20
2022-09-16T15:20:41.022Z,16.20
2022-09-16T15:23:12.709Z,16.20
2022-09-16T15:25:39.654Z,16.30
2022-09-16T15:28:06.491Z,16.30
2022-09-16T15:30:33.177Z,16.20
2022-09-16T15:32:59.812Z,16.10
2022-09-16T15:35:26.723Z,15.90
2022-09-16T15:37:53.770Z,16.00
2022-09-16T15:40:23.526Z,16.00
2022-09-16T15:42:50.316Z,16.00
2022-09-16T15:45:17.802Z,16.00
2022-09-16T15:47:44.533Z,16.00
2022-09-16T15:50:11.529Z,16.00
2022-09-16T15:52:38.167Z,15.90
2022-09-16T15:55:04.937Z,15.80
2022-09-16T15:57:31.562Z,15.80
2022-09-16T16:00:05.939Z,15.80
2022-09-16T16:02:43.167Z,15.70
2022-09-16T16:05:10.100Z,15.70
2022-09-16T16:07:36.744Z,15.80
2022-09-16T16:10:03.919Z,15.90
2022-09-16T16:12:30.593Z,15.90
2022-09-16T16:14:57.271Z,15.90
2022-09-16T16:17:23.936Z,15.90
2022-09-16T16:19:50.711Z,16.00
2022-09-16T16:22:18.045Z,16.00
2022-09-16T16:24:45.441Z,16.00
2022-09-16T16:27:12.240Z,16.00
2022-09-16T16:29:39.250Z,16.00
2022-09-16T16:32:06.172Z,15.90
2022-09-16T16:34:33.065Z,15.80
2022-09-16T16:36:59.701Z,15.80
2022-09-16T16:39:26.497Z,15.80
2022-09-16T16:41:54.095Z,15.90
2022-09-16T16:44:22.484Z,16.30
2022-09-16T16:46:49.171Z,16.50
2022-09-16T16:49:15.896Z,16.40
2022-09-16T16:51:42.601Z,16.40
2022-09-16T16:54:09.379Z,16.10
2022-09-16T16:56:36.040Z,15.90
2022-09-16T16:59:02.807Z,15.80
2022-09-16T17:01:32.456Z,15.70
2022-09-16T17:04:00.900Z,15.60
2022-09-16T17:06:27.624Z,15.50
2022-09-16T17:08:54.854Z,15.40
2022-09-16T17:11:21.583Z,15.30
2022-09-16T17:13:48.355Z,15.30
2022-09-16T17:16:15.168Z,15.20
2022-09-16T17:18:41.963Z,15.20
2022-09-16T17:21:08.741Z,15.20
2022-09-16T17:23:35.478Z,15.20
2022-09-16T17:26:02.156Z,15.20
2022-09-16T17:28:28.923Z,15.20
2022-09-16T17:30:55.668Z,15.20
2022-09-16T17:33:22.441Z,15.10
2022-09-16T17:35:49.111Z,15.20
2022-09-16T17:38:15.821Z,15.20
2022-09-16T17:40:42.577Z,15.00
2022-09-16T17:43:09.261Z,14.90
2022-09-16T17:45:35.924Z,14.80
2022-09-16T17:48:02.756Z,14.80
2022-09-16T17:50:29.459Z,14.70
2022-09-16T17:52:56.154Z,14.60
2022-09-16T17:55:22.794Z,14.60
2022-09-16T17:57:49.487Z,14.50
2022-09-16T18:00:16.148Z,14.50
2022-09-16T18:02:43.166Z,14.50
2022-09-16T18:05:09.918Z,14.40
2022-09-16T18:07:36.699Z,14.40
2022-09-16T18:10:03.505Z,14.40
2022-09-16T18:12:30.239Z,14.30
2022-09-16T18:14:57.042Z,14.30
2022-09-16T18:17:23.763Z,14.30
2022-09-16T18:19:50.448Z,14.20
2022-09-16T18:22:17.176Z,14.10
2022-09-16T18:24:43.828Z,14.10
2022-09-16T18:27:10.579Z,14.10
2022-09-16T18:29:37.511Z,14.00
2022-09-16T18:32:04.235Z,14.00
2022-09-16T18:34:33.622Z,14.00
2022-09-16T18:37:00.611Z,14.00
2022-09-16T18:39:27.301Z,13.90
2022-09-16T18:41:54.034Z,13.90
2022-09-16T18:44:20.748Z,13.80
2022-09-16T18:46:47.483Z,13.80
2022-09-16T18:49:14.195Z,13.70
2022-09-16T18:51:40.888Z,13.80
2022-09-16T18:54:07.618Z,13.70
2022-09-16T18:56:34.333Z,13.60
2022-09-16T18:59:20.595Z,13.60
2022-09-16T19:01:51.000Z,13.60
2022-09-16T19:04:17.863Z,13.60
2022-09-16T19:06:44.501Z,13.50
2022-09-16T19:09:11.319Z,13.50
2022-09-16T19:11:38.210Z,13.50
2022-09-16T19:14:04.909Z,13.50
2022-09-16T19:16:32.112Z,13.40
2022-09-16T19:18:58.849Z,13.40
2022-09-16T19:21:25.691Z,13.30
2022-09-16T19:23:52.388Z,13.30
2022-09-16T19:26:19.075Z,13.30
2022-09-16T19:28:45.792Z,13.30
2022-09-16T19:31:12.403Z,13.20
2022-09-16T19:33:39.212Z,13.20
2022-09-16T19:36:06.100Z,13.20
2022-09-16T19:38:33.097Z,13.10
2022-09-16T19:40:59.769Z,13.10
2022-09-16T19:43:26.463Z,13.10
2022-09-16T19:45:53.917Z,13.10
2022-09-16T19:48:21.399Z,13.10
2022-09-16T19:50:48.024Z,13.00
2022-09-16T19:53:14.684Z,13.00
2022-09-16T19:55:41.954Z,13.00
2022-09-16T19:58:09.234Z,13.00
2022-09-16T20:00:54.997Z,13.00
2022-09-16T20:03:22.576Z,12.90
2022-09-16T20:05:49.320Z,12.90
2022-09-16T20:08:16.074Z,12.90
2022-09-16T20:10:42.725Z,12.90
2022-09-16T20:13:09.491Z,12.90
2022-09-16T20:15:36.352Z,12.90
2022-09-16T20:18:03.100Z,12.90
2022-09-16T20:20:29.797Z,12.80
2022-09-16T20:22:56.500Z,12.80
2022-09-16T20:25:23.827Z,12.70
2022-09-16T20:27:50.907Z,12.60
2022-09-16T20:30:17.561Z,12.60
2022-09-16T20:32:44.227Z,12.50
2022-09-16T20:35:10.920Z,12.50
2022-09-16T20:37:37.600Z,12.50
2022-09-16T20:40:04.306Z,12.40
2022-09-16T20:42:31.574Z,12.40
2022-09-16T20:44:58.227Z,12.40
2022-09-16T20:47:27.485Z,12.40
2022-09-16T20:49:54.180Z,12.40
2022-09-16T20:52:20.904Z,12.40
2022-09-16T20:54:47.522Z,12.30
2022-09-16T20:57:14.259Z,12.30
2022-09-16T20:59:40.916Z,12.30
2022-09-16T21:02:07.688Z,12.30
2022-09-16T21:04:34.325Z,12.20
2022-09-16T21:07:01.002Z,12.30
2022-09-16T21:09:27.678Z,12.20
2022-09-16T21:11:56.101Z,12.20
2022-09-16T21:14:22.817Z,12.20
2022-09-16T21:16:49.695Z,12.20
2022-09-16T21:19:16.783Z,12.10
2022-09-16T21:21:48.567Z,12.10
2022-09-16T21:24:15.880Z,12.10
2022-09-16T21:26:44.055Z,12.00
2022-09-16T21:29:11.371Z,12.00
2022-09-16T21:31:38.325Z,12.00
2022-09-16T21:34:05.134Z,12.00
2022-09-16T21:36:31.830Z,12.00
2022-09-16T21:38:59.234Z,11.90
2022-09-16T21:41:26.519Z,11.90
2022-09-16T21:43:55.507Z,11.90
2022-09-16T21:46:22.234Z,11.80
2022-09-16T21:48:49.156Z,11.80
2022-09-16T21:51:16.787Z,11.80
2022-09-16T21:53:43.586Z,11.80
2022-09-16T21:56:10.297Z,11.80
2022-09-16T21:58:36.959Z,11.70
2022-09-16T22:01:04.208Z,11.70
2022-09-16T22:03:30.966Z,11.60
2022-09-16T22:05:57.617Z,11.60
2022-09-16T22:08:24.298Z,11.50
2022-09-16T22:10:50.964Z,11.50
2022-09-16T22:13:17.655Z,11.50
2022-09-16T22:15:44.316Z,11.50
2022-09-16T22:18:11.173Z,11.40
2022-09-16T22:20:38.332Z,11.50
2022-09-16T22:23:05.044Z,11.40
2022-09-16T22:25:31.722Z,11.40
2022-09-16T22:27:58.440Z,11.40
2022-09-16T22:30:25.104Z,11.40
2022-09-16T22:32:51.877Z,11.30
2022-09-16T22:35:18.525Z,11.30
2022-09-16T22:37:45.221Z,11.30
2022-09-16T22:40:11.891Z,11.30
2022-09-16T22:42:38.835Z,11.30
2022-09-16T22:45:05.734Z,11.30
2022-09-16T22:47:32.412Z,11.30
2022-09-16T22:49:59.074Z,11.30
2022-09-16T22:52:25.867Z,11.20
2022-09-16T22:54:52.477Z,11.20
2022-09-16T22:57:19.152Z,11.20
2022-09-16T22:59:45.841Z,11.20
2022-09-16T23:02:12.545Z,11.20
2022-09-16T23:04:39.166Z,11.20
2022-09-16T23:07:05.917Z,11.10
2022-09-16T23:09:32.586Z,11.10
2022-09-16T23:11:59.759Z,11.10
2022-09-16T23:14:26.549Z,11.10
2022-09-16T23:16:54.244Z,11.10
2022-09-16T23:19:21.044Z,11.10
2022-09-16T23:21:47.917Z,11.10
2022-09-16T23:24:14.698Z,11.10
2022-09-16T23:26:41.492Z,11.10
2022-09-16T23:29:08.190Z,11.00
2022-09-16T23:31:35.635Z,11.00
2022-09-16T23:34:07.576Z,11.00
2022-09-16T23:36:35.226Z,11.00
2022-09-16T23:39:02.282Z,10.90
2022-09-16T23:41:29.033Z,10.90
2022-09-16T23:43:55.722Z,10.90
2022-09-16T23:46:23.047Z,10.90
2022-09-16T23:48:51.780Z,10.90
2022-09-16T23:51:19.528Z,10.90
2022-09-16T23:53:46.234Z,10.90
2022-09-16T23:56:12.917Z,10.90
2022-09-16T23:58:39.551Z,10.90
